Time;durP1;ratioP1;P1;durP2;ratioP2;P2;SDS_P1;SDS_P2;PMS_P1;PMS_P2;Temp;Humidity;BMP_temperature;BMP_pressure;BME280_temperature;BME280_humidity;BME280_pressure;Samples;Min_cycle;Max_cycle;Signal;HPM_P1;HPM_P2
2022/12/06 00:00:37;;;;;;;102.13;69.72;;;;;;;;;;5075930;28;20027;-70
2022/12/06 00:03:02;;;;;;;148.45;97.78;;;;;;;;;;5093377;28;20028;-70
2022/12/06 00:05:29;;;;;;;95.97;61.80;;;;;;;;;;5093269;28;20020;-70
2022/12/06 00:07:55;;;;;;;86.60;48.65;;;;;;;;;;5092947;28;20090;-70
2022/12/06 00:10:20;;;;;;;82.93;47.80;;;;;;;;;;5092660;28;20493;-71
2022/12/06 00:12:46;;;;;;;98.22;53.22;;;;;;;;;;5092818;28;20031;-71
2022/12/06 00:15:11;;;;;;;99.70;55.50;;;;;;;;;;5092824;28;20463;-70
2022/12/06 00:17:36;;;;;;;90.30;51.17;;;;;;;;;;5092758;28;20028;-72
2022/12/06 00:20:02;;;;;;;84.10;57.78;;;;;;;;;;5092826;28;20323;-71
2022/12/06 00:22:27;;;;;;;81.43;54.17;;;;;;;;;;5092813;28;20039;-70
2022/12/06 00:24:53;;;;;;;70.68;49.20;;;;;;;;;;5092878;28;20048;-70
2022/12/06 00:27:18;;;;;;;69.88;45.63;;;;;;;;;;5092822;28;20028;-70
2022/12/06 00:29:43;;;;;;;67.40;45.45;;;;;;;;;;5075073;28;20023;-70
2022/12/06 00:32:09;;;;;;;65.85;43.15;;;;;;;;;;5092564;28;20384;-70
2022/12/06 00:34:34;;;;;;;74.55;47.05;;;;;;;;;;5092415;28;20024;-70
2022/12/06 00:37:00;;;;;;;74.32;45.35;;;;;;;;;;5089380;28;20071;-70
2022/12/06 00:39:25;;;;;;;82.32;46.70;;;;;;;;;;5092894;28;20095;-69
2022/12/06 00:41:53;;;;;;;74.40;43.47;;;;;;;;;;5092742;28;20111;-69
2022/12/06 00:44:18;;;;;;;74.20;45.03;;;;;;;;;;5092193;28;20070;-69
2022/12/06 00:46:44;;;;;;;78.97;47.00;;;;;;;;;;5092564;28;20028;-70
2022/12/06 00:49:09;;;;;;;99.85;63.25;;;;;;;;;;5092445;28;20481;-68
2022/12/06 00:51:35;;;;;;;87.90;55.33;;;;;;;;;;5092278;28;20039;-68
2022/12/06 00:54:01;;;;;;;73.35;49.42;;;;;;;;;;5092415;28;20059;-68
2022/12/06 00:56:27;;;;;;;67.78;46.20;;;;;;;;;;5092277;28;20389;-68
2022/12/06 00:58:52;;;;;;;61.78;38.42;;;;;;;;;;5092504;28;20016;-68
2022/12/06 01:01:20;;;;;;;64.70;39.40;;;;;;;;;;5092326;28;20047;-71
2022/12/06 01:03:47;;;;;;;68.70;40.65;;;;;;;;;;5054217;28;20074;-72
2022/12/06 01:06:14;;;;;;;76.50;42.45;;;;;;;;;;5091033;28;20045;-71
2022/12/06 01:08:40;;;;;;;81.03;42.30;;;;;;;;;;5073873;28;20112;-71
2022/12/06 01:11:05;;;;;;;96.20;45.05;;;;;;;;;;5092353;28;20457;-71
2022/12/06 01:13:31;;;;;;;89.50;46.28;;;;;;;;;;5092386;28;20023;-71
2022/12/06 01:15:57;;;;;;;83.47;44.55;;;;;;;;;;5092199;28;20031;-71
2022/12/06 01:18:22;;;;;;;83.82;45.05;;;;;;;;;;5092275;28;20105;-70
2022/12/06 01:20:48;;;;;;;78.95;44.13;;;;;;;;;;5092418;28;20107;-70
2022/12/06 01:23:13;;;;;;;74.38;41.13;;;;;;;;;;5091925;28;20420;-70
2022/12/06 01:25:47;;;;;;;64.32;40.00;;;;;;;;;;5089214;28;20035;-71
2022/12/06 01:28:12;;;;;;;58.40;38.53;;;;;;;;;;5086750;28;20031;-69
2022/12/06 01:30:38;;;;;;;57.03;37.88;;;;;;;;;;5083555;28;20017;-70
2022/12/06 01:33:03;;;;;;;60.08;38.47;;;;;;;;;;5057372;28;20107;-70
2022/12/06 01:35:30;;;;;;;64.82;40.08;;;;;;;;;;5085003;28;20023;-70
2022/12/06 01:37:55;;;;;;;61.38;39.03;;;;;;;;;;5084708;28;20032;-71
2022/12/06 01:40:21;;;;;;;59.28;39.50;;;;;;;;;;5085602;28;20561;-71
2022/12/06 01:42:46;;;;;;;59.65;38.97;;;;;;;;;;5083589;28;20413;-71
2022/12/06 01:45:12;;;;;;;60.15;37.75;;;;;;;;;;5086099;28;20008;-71
2022/12/06 01:47:38;;;;;;;57.03;36.38;;;;;;;;;;5083399;28;20035;-70
2022/12/06 01:50:13;;;;;;;54.65;36.80;;;;;;;;;;5075454;28;20008;-70
2022/12/06 01:52:44;;;;;;;53.20;35.63;;;;;;;;;;5063061;28;20623;-70
2022/12/06 01:55:11;;;;;;;51.80;34.42;;;;;;;;;;5081201;28;20107;-70
2022/12/06 01:57:38;;;;;;;56.20;35.92;;;;;;;;;;5060539;28;20027;-71
2022/12/06 02:00:06;;;;;;;67.13;40.22;;;;;;;;;;5081876;28;20030;-70
2022/12/06 02:02:35;;;;;;;75.40;42.00;;;;;;;;;;5083991;28;20017;-70
2022/12/06 02:05:02;;;;;;;67.10;38.25;;;;;;;;;;5071837;28;20416;-70
2022/12/06 02:07:28;;;;;;;52.03;34.15;;;;;;;;;;5089000;28;20058;-70
2022/12/06 02:09:53;;;;;;;53.38;34.75;;;;;;;;;;5069450;28;20045;-70
2022/12/06 02:12:19;;;;;;;50.58;32.38;;;;;;;;;;5087592;28;20042;-70
2022/12/06 02:14:47;;;;;;;49.22;31.83;;;;;;;;;;5087348;28;20031;-70
2022/12/06 02:17:28;;;;;;;44.00;30.52;;;;;;;;;;5070233;28;20726;-70
2022/12/06 02:19:53;;;;;;;;;;;;;;;;;;5079134;28;20057;-70
2022/12/06 02:22:37;;;;;;;42.37;30.07;;;;;;;;;;5086542;28;19952;-70
2022/12/06 02:25:02;;;;;;;42.33;29.05;;;;;;;;;;5094969;28;20032;-70
2022/12/06 02:27:47;;;;;;;40.25;28.58;;;;;;;;;;5059318;28;20024;-70
2022/12/06 02:30:17;;;;;;;41.03;29.08;;;;;;;;;;5090879;28;20058;-70
2022/12/06 02:32:56;;;;;;;41.83;29.60;;;;;;;;;;5095301;28;20077;-70
2022/12/06 02:35:21;;;;;;;42.53;28.08;;;;;;;;;;5094998;28;20390;-70
2022/12/06 02:37:51;;;;;;;40.45;27.98;;;;;;;;;;5090181;28;20048;-70
2022/12/06 02:40:20;;;;;;;42.22;28.55;;;;;;;;;;5077429;28;20036;-70
2022/12/06 02:43:07;;;;;;;38.45;27.88;;;;;;;;;;5089949;28;20073;-69
2022/12/06 02:45:37;;;;;;;43.15;27.45;;;;;;;;;;5090980;28;20031;-70
2022/12/06 02:48:03;;;;;;;37.97;26.10;;;;;;;;;;5077207;28;20028;-69
2022/12/06 02:50:36;;;;;;;36.42;26.60;;;;;;;;;;5077099;28;20020;-69
2022/12/06 02:53:02;;;;;;;33.70;25.00;;;;;;;;;;5074449;28;20032;-69
2022/12/06 02:55:29;;;;;;;34.40;23.77;;;;;;;;;;5095134;28;20024;-69
2022/12/06 02:57:56;;;;;;;34.05;24.27;;;;;;;;;;5090063;28;20074;-69
2022/12/06 03:00:29;;;;;;;29.73;22.60;;;;;;;;;;5088053;28;20050;-68
2022/12/06 03:02:59;;;;;;;26.05;19.95;;;;;;;;;;5094123;28;20028;-68
2022/12/06 03:05:30;;;;;;;26.67;19.45;;;;;;;;;;5070718;28;20020;-68
2022/12/06 03:07:57;;;;;;;26.85;18.73;;;;;;;;;;5093616;28;20493;-68
2022/12/06 03:10:45;;;;;;;23.73;17.15;;;;;;;;;;5093882;28;20016;-68
2022/12/06 03:13:16;;;;;;;23.58;17.02;;;;;;;;;;5074608;28;20046;-68
2022/12/06 03:15:45;;;;;;;21.77;15.90;;;;;;;;;;5093697;28;20400;-69
2022/12/06 03:18:19;;;;;;;20.17;15.55;;;;;;;;;;5076269;28;20449;-70
2022/12/06 03:20:48;;;;;;;19.13;14.40;;;;;;;;;;5088656;28;20517;-69
2022/12/06 03:23:15;;;;;;;18.80;15.38;;;;;;;;;;5094180;28;20020;-69
2022/12/06 03:25:42;;;;;;;23.88;16.77;;;;;;;;;;5093983;28;20366;-68
2022/12/06 03:28:09;;;;;;;22.77;16.33;;;;;;;;;;5094277;28;20529;-70
2022/12/06 03:30:35;;;;;;;21.23;15.68;;;;;;;;;;5094188;28;20030;-70
2022/12/06 03:33:00;;;;;;;20.75;15.38;;;;;;;;;;5093824;28;20377;-70
2022/12/06 03:35:28;;;;;;;21.48;15.55;;;;;;;;;;5093927;28;20054;-71
2022/12/06 03:38:05;;;;;;;23.08;16.70;;;;;;;;;;5093793;28;20074;-70
2022/12/06 03:40:33;;;;;;;22.92;16.73;;;;;;;;;;5086592;28;20024;-70
2022/12/06 03:42:59;;;;;;;23.92;16.67;;;;;;;;;;5093834;28;20414;-70
2022/12/06 03:45:28;;;;;;;24.02;17.27;;;;;;;;;;5093422;28;20052;-69
2022/12/06 03:47:58;;;;;;;21.38;15.38;;;;;;;;;;5093504;28;20073;-70
2022/12/06 03:50:33;;;;;;;21.15;15.93;;;;;;;;;;5093328;28;20704;-70
2022/12/06 03:52:59;;;;;;;23.35;17.35;;;;;;;;;;5093411;28;20051;-70
2022/12/06 03:55:25;;;;;;;22.33;16.98;;;;;;;;;;5093225;28;20020;-70
2022/12/06 03:57:50;;;;;;;18.88;14.98;;;;;;;;;;5093425;28;20069;-70
2022/12/06 04:00:16;;;;;;;21.67;16.85;;;;;;;;;;5093817;28;20016;-69
2022/12/06 04:02:41;;;;;;;18.35;15.65;;;;;;;;;;5093728;28;20020;-70
2022/12/06 04:05:07;;;;;;;17.77;12.77;;;;;;;;;;5093982;28;20024;-70
2022/12/06 04:07:32;;;;;;;17.90;13.75;;;;;;;;;;5093782;28;20028;-70
2022/12/06 04:10:03;;;;;;;15.18;13.13;;;;;;;;;;5093908;28;20032;-70
2022/12/06 04:15:14;;;;;;;16.48;12.65;;;;;;;;;;5088973;28;20039;-70
2022/12/06 04:20:24;;;;;;;18.75;14.93;;;;;;;;;;5092436;28;20381;-71
2022/12/06 04:23:04;;;;;;;26.52;20.35;;;;;;;;;;5093643;28;20020;-71
2022/12/06 04:25:29;;;;;;;;;;;;;;;;;;5088720;28;20437;-71
2022/12/06 04:38:51;;;;;;;14.43;12.00;;;;;;;;;;5088066;28;20024;-69
2022/12/06 04:44:01;;;;;;;17.88;14.27;;;;;;;;;;5086433;28;20119;-67
2022/12/06 04:46:26;;;;;;;20.33;15.50;;;;;;;;;;5074424;28;20106;-67
2022/12/06 04:48:52;;;;;;;21.13;15.52;;;;;;;;;;5092585;28;20024;-67
2022/12/06 04:51:17;;;;;;;21.67;16.27;;;;;;;;;;5092595;28;20016;-69
2022/12/06 04:53:42;;;;;;;41.63;28.70;;;;;;;;;;5092319;28;20028;-69
2022/12/06 04:56:08;;;;;;;28.15;21.48;;;;;;;;;;5092488;28;20094;-69
2022/12/06 04:58:33;;;;;;;24.60;18.30;;;;;;;;;;5092538;28;20032;-69
2022/12/06 05:00:59;;;;;;;23.30;15.77;;;;;;;;;;5092609;28;20780;-69
2022/12/06 05:03:24;;;;;;;21.73;15.98;;;;;;;;;;5092237;28;20024;-69
2022/12/06 05:05:50;;;;;;;20.83;15.98;;;;;;;;;;5092411;28;20076;-69
2022/12/06 05:08:15;;;;;;;21.13;15.75;;;;;;;;;;5092449;28;20024;-69
2022/12/06 05:10:45;;;;;;;19.85;14.85;;;;;;;;;;5092420;28;20475;-68
2022/12/06 05:13:10;;;;;;;20.67;15.27;;;;;;;;;;5087365;28;20500;-69
2022/12/06 05:15:35;;;;;;;21.05;15.07;;;;;;;;;;5074049;28;20047;-69
2022/12/06 05:18:01;;;;;;;21.02;16.08;;;;;;;;;;5074231;28;20457;-69
2022/12/06 05:20:26;;;;;;;20.90;15.32;;;;;;;;;;5092040;28;20092;-68
2022/12/06 05:22:51;;;;;;;21.80;15.27;;;;;;;;;;5074022;28;20383;-69
2022/12/06 05:25:18;;;;;;;19.40;14.50;;;;;;;;;;5092206;28;20040;-68
2022/12/06 05:27:43;;;;;;;20.45;15.65;;;;;;;;;;5074256;28;20020;-63
2022/12/06 05:30:10;;;;;;;20.05;14.20;;;;;;;;;;5091823;28;20032;-64
2022/12/06 05:32:36;;;;;;;17.02;13.07;;;;;;;;;;5092529;28;20039;-64
2022/12/06 05:35:02;;;;;;;16.98;12.82;;;;;;;;;;5094184;28;20040;-64
2022/12/06 05:37:27;;;;;;;16.67;13.60;;;;;;;;;;5075508;28;20032;-64
2022/12/06 05:39:53;;;;;;;16.70;12.85;;;;;;;;;;5094003;28;20035;-64
2022/12/06 05:42:18;;;;;;;19.13;13.85;;;;;;;;;;5093993;28;20028;-64
2022/12/06 05:44:43;;;;;;;17.48;13.57;;;;;;;;;;5102093;28;20089;-70
2022/12/06 05:47:09;;;;;;;18.75;14.35;;;;;;;;;;5101475;28;20534;-68
2022/12/06 05:49:34;;;;;;;20.85;14.30;;;;;;;;;;5106792;28;20373;-68
2022/12/06 05:52:00;;;;;;;20.73;14.25;;;;;;;;;;5114207;28;20034;-68
2022/12/06 05:54:25;;;;;;;18.27;12.55;;;;;;;;;;5114229;28;20024;-68
2022/12/06 05:56:50;;;;;;;15.82;12.70;;;;;;;;;;5114172;28;20101;-68
2022/12/06 05:59:16;;;;;;;15.60;11.98;;;;;;;;;;5114213;28;20046;-68
2022/12/06 06:01:42;;;;;;;19.40;13.07;;;;;;;;;;5113941;28;20032;-68
2022/12/06 06:04:07;;;;;;;18.25;13.25;;;;;;;;;;5096119;28;20020;-67
2022/12/06 06:06:33;;;;;;;18.73;13.32;;;;;;;;;;5113845;28;20036;-68
2022/12/06 06:08:58;;;;;;;16.90;12.43;;;;;;;;;;5096416;28;20022;-68
2022/12/06 06:11:24;;;;;;;15.40;10.85;;;;;;;;;;5113932;28;20039;-67
2022/12/06 06:13:49;;;;;;;12.73;10.23;;;;;;;;;;5114329;28;20023;-67
2022/12/06 06:16:14;;;;;;;13.95;10.98;;;;;;;;;;5113758;28;20039;-68
2022/12/06 06:18:40;;;;;;;14.48;11.35;;;;;;;;;;5114075;28;20041;-69
2022/12/06 06:21:05;;;;;;;14.80;10.73;;;;;;;;;;5114025;28;20024;-68
2022/12/06 06:23:30;;;;;;;13.07;11.25;;;;;;;;;;5113754;28;20457;-68
2022/12/06 06:25:56;;;;;;;19.48;14.63;;;;;;;;;;5113676;28;20032;-68
2022/12/06 06:28:21;;;;;;;20.00;14.73;;;;;;;;;;5113712;28;20031;-68
2022/12/06 06:30:47;;;;;;;21.88;15.43;;;;;;;;;;5112159;28;20032;-68
2022/12/06 06:33:12;;;;;;;17.35;14.32;;;;;;;;;;5112997;28;20090;-68
2022/12/06 06:35:38;;;;;;;22.58;15.10;;;;;;;;;;5111430;28;20028;-69
2022/12/06 06:38:04;;;;;;;94.38;51.33;;;;;;;;;;5093095;28;20431;-68
2022/12/06 06:40:29;;;;;;;38.53;25.58;;;;;;;;;;5093427;28;20067;-68
2022/12/06 06:42:55;;;;;;;36.47;23.10;;;;;;;;;;5095063;28;20047;-68
2022/12/06 06:45:20;;;;;;;57.30;33.80;;;;;;;;;;5115650;28;20032;-68
2022/12/06 06:47:45;;;;;;;34.03;22.65;;;;;;;;;;5097568;28;20023;-68
2022/12/06 06:50:11;;;;;;;26.88;18.42;;;;;;;;;;5115786;28;20745;-68
2022/12/06 06:52:36;;;;;;;29.38;20.27;;;;;;;;;;5116231;28;20027;-68
2022/12/06 06:55:02;;;;;;;24.10;17.05;;;;;;;;;;5116339;28;20074;-68
2022/12/06 06:57:27;;;;;;;13.00;10.80;;;;;;;;;;5081417;28;20466;-68
2022/12/06 06:59:52;;;;;;;25.65;17.30;;;;;;;;;;5115751;28;20026;-68
2022/12/06 07:02:18;;;;;;;13.00;11.18;;;;;;;;;;5116287;28;20015;-68
2022/12/06 07:04:44;;;;;;;13.60;10.68;;;;;;;;;;5116444;28;20020;-68
2022/12/06 07:07:09;;;;;;;12.98;11.40;;;;;;;;;;5115427;28;20046;-68
2022/12/06 07:09:35;;;;;;;11.10;8.63;;;;;;;;;;5114996;28;20073;-68
2022/12/06 07:12:01;;;;;;;10.00;8.98;;;;;;;;;;5116327;28;20015;-68
2022/12/06 07:14:29;;;;;;;12.43;9.98;;;;;;;;;;5116177;28;20719;-68
2022/12/06 07:16:54;;;;;;;13.43;11.18;;;;;;;;;;5116019;28;20455;-68
2022/12/06 07:19:19;;;;;;;13.70;12.02;;;;;;;;;;5116059;28;20058;-68
2022/12/06 07:21:44;;;;;;;14.15;12.52;;;;;;;;;;5116208;28;20016;-68
2022/12/06 07:24:10;;;;;;;11.52;10.35;;;;;;;;;;5099176;28;20096;-69
2022/12/06 07:26:35;;;;;;;12.02;9.57;;;;;;;;;;5116773;28;20369;-69
2022/12/06 07:29:01;;;;;;;11.98;10.40;;;;;;;;;;5116761;28;20081;-69
2022/12/06 07:31:27;;;;;;;13.13;11.15;;;;;;;;;;5098135;28;20088;-69
2022/12/06 07:33:57;;;;;;;14.23;11.23;;;;;;;;;;5116654;28;20027;-69
2022/12/06 07:36:23;;;;;;;15.50;11.37;;;;;;;;;;5116310;28;20036;-69
2022/12/06 07:38:49;;;;;;;13.63;11.23;;;;;;;;;;5116582;28;20031;-69
2022/12/06 07:46:43;;;;;;;18.77;14.50;;;;;;;;;;5116423;28;20039;-69
2022/12/06 07:49:09;;;;;;;15.32;12.15;;;;;;;;;;5116105;28;20019;-69
2022/12/06 07:51:34;;;;;;;16.13;13.18;;;;;;;;;;5116039;28;20057;-69
2022/12/06 07:54:00;;;;;;;31.15;18.95;;;;;;;;;;5115911;28;20034;-69
2022/12/06 07:56:26;;;;;;;37.88;21.55;;;;;;;;;;5115835;28;20031;-69
2022/12/06 07:58:51;;;;;;;27.77;15.95;;;;;;;;;;5115874;28;20011;-69
2022/12/06 08:01:17;;;;;;;23.85;15.63;;;;;;;;;;5115956;28;20470;-69
2022/12/06 08:03:42;;;;;;;19.05;13.70;;;;;;;;;;5097303;28;20020;-69
2022/12/06 08:06:07;;;;;;;20.83;15.63;;;;;;;;;;5097884;28;20369;-69
2022/12/06 08:08:33;;;;;;;20.90;15.25;;;;;;;;;;5115663;28;20020;-67
2022/12/06 08:10:59;;;;;;;18.58;13.32;;;;;;;;;;5115381;28;20082;-70
2022/12/06 08:13:24;;;;;;;12.38;10.38;;;;;;;;;;5115883;28;20027;-69
2022/12/06 08:15:50;;;;;;;12.18;10.05;;;;;;;;;;5115575;28;20027;-70
2022/12/06 08:18:15;;;;;;;11.63;9.95;;;;;;;;;;5115118;28;20027;-69
2022/12/06 08:20:41;;;;;;;9.38;8.45;;;;;;;;;;5114566;28;20024;-69
2022/12/06 08:23:06;;;;;;;9.80;8.68;;;;;;;;;;5114246;28;20460;-70
2022/12/06 08:25:31;;;;;;;9.00;8.15;;;;;;;;;;5114204;28;20082;-69
2022/12/06 08:27:57;;;;;;;9.95;8.90;;;;;;;;;;5114258;28;20498;-69
2022/12/06 08:30:22;;;;;;;13.00;10.32;;;;;;;;;;5095689;28;20039;-69
2022/12/06 08:32:47;;;;;;;14.25;11.45;;;;;;;;;;5114143;28;20043;-69
2022/12/06 08:35:13;;;;;;;23.48;17.13;;;;;;;;;;5114021;28;20382;-69
2022/12/06 08:37:38;;;;;;;24.33;16.98;;;;;;;;;;5113687;28;20050;-69
2022/12/06 08:40:04;;;;;;;20.85;16.05;;;;;;;;;;5113948;28;20059;-69
2022/12/06 08:42:29;;;;;;;21.27;15.68;;;;;;;;;;5113910;28;20098;-69
2022/12/06 08:44:55;;;;;;;20.42;15.15;;;;;;;;;;5095413;28;20111;-69
2022/12/06 08:47:20;;;;;;;19.85;15.00;;;;;;;;;;5113544;28;20027;-69
2022/12/06 08:49:45;;;;;;;19.30;13.70;;;;;;;;;;5113784;28;20042;-69
2022/12/06 08:52:11;;;;;;;24.55;16.52;;;;;;;;;;5113469;28;20038;-69
2022/12/06 08:54:38;;;;;;;25.02;17.20;;;;;;;;;;5113287;28;20088;-69
2022/12/06 08:57:03;;;;;;;21.80;16.30;;;;;;;;;;5113529;28;20023;-69
2022/12/06 08:59:29;;;;;;;23.17;15.85;;;;;;;;;;5113577;28;20039;-69
2022/12/06 09:01:54;;;;;;;18.92;14.98;;;;;;;;;;5113580;28;20149;-69
2022/12/06 09:04:19;;;;;;;20.40;14.93;;;;;;;;;;5113497;28;20126;-69
2022/12/06 09:06:45;;;;;;;15.45;12.55;;;;;;;;;;5094794;28;20365;-69
2022/12/06 09:09:11;;;;;;;11.93;10.63;;;;;;;;;;5113403;28;20027;-69
2022/12/06 09:11:37;;;;;;;15.30;12.07;;;;;;;;;;5113372;28;20096;-69
2022/12/06 09:14:03;;;;;;;16.40;13.20;;;;;;;;;;5113339;28;20027;-69
2022/12/06 09:16:28;;;;;;;15.68;13.32;;;;;;;;;;5113456;28;20012;-69
2022/12/06 09:18:54;;;;;;;16.70;13.23;;;;;;;;;;5113037;28;20023;-68
2022/12/06 09:21:20;;;;;;;16.70;14.25;;;;;;;;;;5113270;28;20380;-68
2022/12/06 09:23:46;;;;;;;13.35;11.88;;;;;;;;;;5113143;28;20023;-68
2022/12/06 09:26:11;;;;;;;12.00;10.65;;;;;;;;;;5112942;28;20381;-68
2022/12/06 09:28:38;;;;;;;17.17;13.75;;;;;;;;;;5113236;28;20424;-68
2022/12/06 09:31:03;;;;;;;15.77;13.05;;;;;;;;;;5113194;28;20016;-68
2022/12/06 09:33:29;;;;;;;13.10;11.25;;;;;;;;;;5113125;28;20038;-68
2022/12/06 09:35:54;;;;;;;11.20;10.02;;;;;;;;;;5112797;28;20058;-68
2022/12/06 09:38:21;;;;;;;12.55;11.13;;;;;;;;;;5112600;28;20066;-68
2022/12/06 09:40:58;;;;;;;11.70;10.00;;;;;;;;;;5113071;28;20469;-68
2022/12/06 09:43:39;;;;;;;13.32;11.07;;;;;;;;;;5112743;28;20028;-68
2022/12/06 09:46:10;;;;;;;13.43;10.93;;;;;;;;;;5113040;28;20034;-68
2022/12/06 09:48:39;;;;;;;14.57;11.93;;;;;;;;;;5112680;28;20110;-68
2022/12/06 09:51:19;;;;;;;17.25;13.07;;;;;;;;;;5112967;28;20154;-68
2022/12/06 09:53:48;;;;;;;15.30;12.85;;;;;;;;;;5112919;28;20060;-71
2022/12/06 09:56:19;;;;;;;23.98;17.38;;;;;;;;;;5112960;28;20028;-68
2022/12/06 09:58:45;;;;;;;28.02;19.85;;;;;;;;;;5112944;28;20110;-68
2022/12/06 10:01:18;;;;;;;32.50;23.77;;;;;;;;;;5112900;28;20051;-68
2022/12/06 10:03:44;;;;;;;20.33;17.20;;;;;;;;;;5112738;28;20028;-70
2022/12/06 10:06:15;;;;;;;20.75;15.40;;;;;;;;;;5113062;28;20027;-70
2022/12/06 10:08:40;;;;;;;21.75;16.23;;;;;;;;;;5113706;28;20023;-70
2022/12/06 10:11:05;;;;;;;20.40;15.23;;;;;;;;;;5113635;28;20024;-69
2022/12/06 10:13:34;;;;;;;18.67;14.40;;;;;;;;;;5095211;28;20039;-69
2022/12/06 10:16:17;;;;;;;22.65;15.32;;;;;;;;;;5113671;28;20538;-71
2022/12/06 10:18:58;;;;;;;22.52;15.60;;;;;;;;;;5116288;28;20039;-70
2022/12/06 10:21:30;;;;;;;16.30;13.10;;;;;;;;;;5099111;28;20030;-69
2022/12/06 10:24:17;;;;;;;29.58;17.40;;;;;;;;;;5117365;28;20055;-70
2022/12/06 10:26:50;;;;;;;24.00;14.55;;;;;;;;;;5116786;28;20038;-70
2022/12/06 10:29:20;;;;;;;24.92;15.95;;;;;;;;;;5117028;28;20070;-70
2022/12/06 10:31:55;;;;;;;15.20;12.18;;;;;;;;;;5098312;28;20024;-69
2022/12/06 10:34:22;;;;;;;15.00;11.63;;;;;;;;;;5117046;28;20023;-69
2022/12/06 10:37:01;;;;;;;18.65;13.57;;;;;;;;;;5116876;28;20044;-73
2022/12/06 10:39:31;;;;;;;19.77;13.35;;;;;;;;;;5117056;28;20454;-69
2022/12/06 10:42:00;;;;;;;30.63;18.95;;;;;;;;;;5116875;28;20031;-69
2022/12/06 10:44:31;;;;;;;29.80;19.08;;;;;;;;;;5116949;28;20016;-69
2022/12/06 10:47:02;;;;;;;;;;;;;;;;;;5117450;28;20111;-69
2022/12/06 10:49:40;;;;;;;23.70;16.42;;;;;;;;;;5116410;28;20415;-69
2022/12/06 10:52:24;;;;;;;32.78;19.42;;;;;;;;;;5116077;28;20039;-69
2022/12/06 10:54:49;;;;;;;32.67;18.60;;;;;;;;;;5115781;28;20470;-70
2022/12/06 10:57:17;;;;;;;29.77;15.75;;;;;;;;;;5097348;28;20028;-69
2022/12/06 10:59:53;;;;;;;40.15;19.77;;;;;;;;;;5115946;28;20110;-69
2022/12/06 11:02:29;;;;;;;44.35;26.55;;;;;;;;;;5115668;28;20036;-69
2022/12/06 11:04:58;;;;;;;54.97;31.33;;;;;;;;;;5097526;28;20024;-70
2022/12/06 11:07:26;;;;;;;75.55;41.15;;;;;;;;;;5115750;28;20026;-69
2022/12/06 11:09:54;;;;;;;105.72;57.88;;;;;;;;;;5115840;28;20028;-69
2022/12/06 11:12:23;;;;;;;90.18;52.78;;;;;;;;;;5115709;28;20059;-69
2022/12/06 11:14:51;;;;;;;58.50;35.95;;;;;;;;;;5115363;28;20040;-69
2022/12/06 11:17:31;;;;;;;39.47;27.15;;;;;;;;;;5097253;28;20527;-69
2022/12/06 11:20:09;;;;;;;26.27;19.25;;;;;;;;;;5115605;28;20032;-69
2022/12/06 11:22:53;;;;;;;19.52;14.88;;;;;;;;;;5097245;28;20457;-69
2022/12/06 11:25:19;;;;;;;14.48;12.68;;;;;;;;;;5115444;28;20032;-69
2022/12/06 11:28:04;;;;;;;18.13;13.50;;;;;;;;;;5115220;28;20023;-69
2022/12/06 11:30:31;;;;;;;20.73;16.58;;;;;;;;;;5115328;28;20024;-69
2022/12/06 11:32:58;;;;;;;20.55;17.00;;;;;;;;;;5115347;28;20016;-69
2022/12/06 11:35:25;;;;;;;21.17;15.88;;;;;;;;;;5115250;28;20031;-69
2022/12/06 11:37:53;;;;;;;22.60;16.55;;;;;;;;;;5081468;28;20425;-69
2022/12/06 11:40:19;;;;;;;19.08;14.48;;;;;;;;;;5094784;28;20024;-69
2022/12/06 11:42:45;;;;;;;14.20;12.05;;;;;;;;;;5094745;28;20470;-69
2022/12/06 11:45:28;;;;;;;11.93;9.35;;;;;;;;;;5094806;28;20024;-70
2022/12/06 11:47:58;;;;;;;13.55;10.52;;;;;;;;;;5094636;28;20028;-70
2022/12/06 11:50:24;;;;;;;17.58;12.13;;;;;;;;;;5094402;28;20458;-70
2022/12/06 11:52:55;;;;;;;11.85;9.70;;;;;;;;;;5094528;28;20101;-70
2022/12/06 11:55:23;;;;;;;14.90;11.43;;;;;;;;;;5076446;28;20058;-70
2022/12/06 11:57:50;;;;;;;14.27;10.27;;;;;;;;;;5094425;28;20020;-70
2022/12/06 12:00:20;;;;;;;14.90;12.40;;;;;;;;;;5094378;28;20024;-70
2022/12/06 12:02:46;;;;;;;16.30;13.98;;;;;;;;;;5094015;28;20020;-70
2022/12/06 12:05:23;;;;;;;17.45;11.93;;;;;;;;;;5094029;28;20028;-70
2022/12/06 12:07:50;;;;;;;17.20;13.63;;;;;;;;;;5094030;28;20101;-70
2022/12/06 12:10:29;;;;;;;13.85;11.18;;;;;;;;;;5094207;28;20476;-70
2022/12/06 12:15:46;;;;;;;12.57;10.52;;;;;;;;;;5094074;28;20024;-70
2022/12/06 12:18:20;;;;;;;13.45;10.60;;;;;;;;;;5093175;28;20032;-70
2022/12/06 12:20:46;;;;;;;9.93;8.32;;;;;;;;;;5093475;28;20097;-70
2022/12/06 12:23:20;;;;;;;8.77;7.80;;;;;;;;;;5093946;28;20477;-70
2022/12/06 12:26:01;;;;;;;10.98;8.25;;;;;;;;;;5093846;28;20086;-70
2022/12/06 12:28:28;;;;;;;10.00;7.88;;;;;;;;;;5075729;28;20027;-69
2022/12/06 12:30:54;;;;;;;11.20;8.75;;;;;;;;;;5093509;28;20027;-70
2022/12/06 12:33:21;;;;;;;11.60;9.02;;;;;;;;;;5075251;28;20382;-70
2022/12/06 12:35:49;;;;;;;11.50;8.70;;;;;;;;;;5094599;28;20034;-70
2022/12/06 12:38:19;;;;;;;13.43;9.02;;;;;;;;;;5092898;28;20044;-70
2022/12/06 12:40:49;;;;;;;11.90;8.13;;;;;;;;;;5092539;28;20020;-70
2022/12/06 12:43:15;;;;;;;;;;;;;;;;;;5093731;28;20265;-70
2022/12/06 12:46:00;;;;;;;10.18;8.43;;;;;;;;;;5093580;28;20282;-71
2022/12/06 12:48:26;;;;;;;8.60;7.28;;;;;;;;;;5093350;28;20036;-70
2022/12/06 12:50:52;;;;;;;7.68;6.40;;;;;;;;;;5093469;28;20035;-70
2022/12/06 12:53:48;;;;;;;9.10;6.85;;;;;;;;;;5093400;28;20051;-70
2022/12/06 12:56:15;;;;;;;12.43;8.27;;;;;;;;;;5072073;28;20051;-70
2022/12/06 12:58:41;;;;;;;14.13;10.10;;;;;;;;;;5093258;28;20036;-71
2022/12/06 13:01:25;;;;;;;9.68;8.60;;;;;;;;;;5093785;28;20024;-71
2022/12/06 13:03:56;;;;;;;8.40;6.95;;;;;;;;;;5075356;28;20024;-69
2022/12/06 13:06:31;;;;;;;8.13;7.32;;;;;;;;;;5093279;28;20028;-69
2022/12/06 13:08:59;;;;;;;12.10;8.30;;;;;;;;;;5093473;28;20024;-70
2022/12/06 13:11:25;;;;;;;9.85;6.88;;;;;;;;;;5093102;28;20458;-70
2022/12/06 13:13:53;;;;;;;8.77;7.07;;;;;;;;;;5093114;28;20489;-69
2022/12/06 13:16:20;;;;;;;9.05;7.43;;;;;;;;;;5093389;28;20016;-70
2022/12/06 13:18:49;;;;;;;9.85;8.60;;;;;;;;;;5074466;28;20422;-70
2022/12/06 13:21:18;;;;;;;12.70;8.32;;;;;;;;;;5092971;28;20016;-70
2022/12/06 13:23:44;;;;;;;9.88;7.13;;;;;;;;;;5092955;28;20048;-70
2022/12/06 13:26:17;;;;;;;8.50;6.75;;;;;;;;;;5092953;28;20517;-70
2022/12/06 13:28:44;;;;;;;8.98;5.85;;;;;;;;;;5092622;28;20452;-73
2022/12/06 13:31:12;;;;;;;7.43;6.45;;;;;;;;;;5092860;28;20012;-70
2022/12/06 13:33:41;;;;;;;8.63;7.35;;;;;;;;;;5092845;28;20074;-70
2022/12/06 13:36:08;;;;;;;9.50;7.45;;;;;;;;;;5092314;28;20081;-70
2022/12/06 13:38:35;;;;;;;8.48;6.88;;;;;;;;;;5092866;28;20032;-70
2022/12/06 13:41:01;;;;;;;7.53;6.68;;;;;;;;;;5092719;28;20016;-70
2022/12/06 13:43:27;;;;;;;8.52;6.82;;;;;;;;;;5092639;28;20032;-70
2022/12/06 13:45:53;;;;;;;7.00;6.05;;;;;;;;;;5092683;28;20031;-70
2022/12/06 13:48:33;;;;;;;8.05;6.53;;;;;;;;;;5092653;28;20447;-70
2022/12/06 13:51:03;;;;;;;8.38;5.65;;;;;;;;;;5092457;28;20036;-70
2022/12/06 13:53:32;;;;;;;5.38;4.88;;;;;;;;;;5096913;28;20096;-70
2022/12/06 13:56:02;;;;;;;6.27;5.33;;;;;;;;;;5096876;28;20039;-70
2022/12/06 13:58:27;;;;;;;8.02;6.53;;;;;;;;;;5096720;28;20024;-70
2022/12/06 14:00:54;;;;;;;8.35;7.10;;;;;;;;;;5096705;28;20024;-70
2022/12/06 14:03:19;;;;;;;11.30;8.15;;;;;;;;;;5096670;28;20359;-70
2022/12/06 14:05:59;;;;;;;9.38;7.40;;;;;;;;;;5096544;28;20035;-70
2022/12/06 14:08:45;;;;;;;10.02;7.43;;;;;;;;;;5096630;28;20046;-70
2022/12/06 14:11:25;;;;;;;8.27;7.30;;;;;;;;;;5078743;28;20052;-70
2022/12/06 14:13:59;;;;;;;8.20;7.40;;;;;;;;;;5096460;28;20111;-70
2022/12/06 14:16:25;;;;;;;7.40;6.07;;;;;;;;;;5096531;28;20020;-71
2022/12/06 14:18:50;;;;;;;6.00;5.40;;;;;;;;;;5096306;28;20428;-70
2022/12/06 14:21:28;;;;;;;7.15;5.20;;;;;;;;;;5096376;28;20028;-70
2022/12/06 14:23:53;;;;;;;6.68;5.82;;;;;;;;;;5096284;28;20027;-70
2022/12/06 14:26:22;;;;;;;8.10;6.55;;;;;;;;;;5096183;28;20024;-70
2022/12/06 14:28:48;;;;;;;13.50;9.32;;;;;;;;;;5096154;28;20051;-70
2022/12/06 14:31:16;;;;;;;8.20;6.22;;;;;;;;;;5096166;28;20111;-70
2022/12/06 14:33:43;;;;;;;7.50;5.53;;;;;;;;;;5096814;28;20209;-70
2022/12/06 14:36:15;;;;;;;7.72;5.80;;;;;;;;;;5096424;28;20019;-70
2022/12/06 14:38:40;;;;;;;10.48;6.30;;;;;;;;;;5096651;28;20044;-70
2022/12/06 14:43:59;;;;;;;6.93;5.90;;;;;;;;;;5096655;28;20020;-70
2022/12/06 14:46:25;;;;;;;7.82;6.47;;;;;;;;;;5087977;28;20016;-69
2022/12/06 14:51:36;;;;;;;11.57;8.02;;;;;;;;;;5095457;28;20101;-69
2022/12/06 14:54:16;;;;;;;8.85;7.63;;;;;;;;;;5095679;28;20020;-69
2022/12/06 14:56:43;;;;;;;;;;;;;;;;;;5096066;28;20024;-69
2022/12/06 14:59:09;;;;;;;11.38;9.32;;;;;;;;;;5095602;28;19904;-69
2022/12/06 15:01:44;;;;;;;10.60;8.30;;;;;;;;;;5077301;28;20036;-69